Buoy 21901

sailwx.info

Track history (hours):
 
Tides and Currents Weather Stations Pressure Air Temp Water Temp Dewpoint Dewpoint Depression Visibility Wind Speed Wind Dir Waves Ship Positions

Drifting buoy 21901

Last reported at 2017-Nov-18 12:50 UTC. Time now 2017-Nov-18 15:37 UTC.
Position N 16°48' W 159°13'.

Barometer 1010.3 mb
Water temperature 26.7 ° C

Date/timePositionNaut miles runAvg speedWind from/ knotsBaromVisibWave heightAir tempDewpointWater temp
2017-Nov-18 12:50N 16°48' W 159°13'0 0.0 1010.3 26.7
2017-Nov-18 11:50N 16°48' W 159°13'1 0.2 1010.8 26.7
2017-Nov-18 07:50N 16°49' W 159°13'1 0.8 1012.2 26.7
2017-Nov-18 06:50N 16°49' W 159°12'1 0.8 1012.1 26.7
2017-Nov-18 05:50N 16°50' W 159°11'1 0.6 1011.6 26.7
2017-Nov-18 04:50N 16°50' W 159°11'0 0.0 1010.7 26.7
2017-Nov-18 03:50N 16°50' W 159°11'2 2.3 1010.1 26.8
2017-Nov-18 02:50N 16°50' W 159°08'1 1.3 1009.7 26.8
2017-Nov-18 01:50N 16°49' W 159°07'0 0.0 1009.7 26.8
2017-Nov-18 00:50N 16°49' W 159°07'2 2.3 1009.9 26.8
2017-Nov-17 23:50N 16°49' W 159°05'0 0.0 1010.6 26.8
2017-Nov-17 20:50N 16°49' W 159°05'2 1.7 1012.9 26.7
2017-Nov-17 19:50N 16°49' W 159°03'1 0.6 1013.1 26.7
2017-Nov-17 18:50N 16°49' W 159°02'1 0.8 1012.9 26.7
2017-Nov-17 17:50N 16°50' W 159°02'0 0.0 1012.3 26.7
2017-Nov-17 16:50N 16°50' W 159°02'2 2.4 1011.9 26.7
2017-Nov-17 15:50N 16°50' W 158°59'0 0.0 1011.6 26.7
2017-Nov-17 14:50N 16°50' W 158°59'2 1.7 1011.3 26.7
2017-Nov-17 13:50N 16°50' W 158°58'3 2.9 1011.4 26.7
2017-Nov-17 12:50N 16°51' W 158°55'0 0.0 1012.0 26.7
2017-Nov-17 08:50N 16°51' W 158°55'1 0.8 1014.2 26.7
2017-Nov-17 07:50N 16°50' W 158°54'1 0.6 1014.3 26.8
2017-Nov-17 06:50N 16°50' W 158°53'1 1.3 1014.0 26.8
2017-Nov-17 05:50N 16°51' W 158°52'2 1.8 1013.6 26.8
2017-Nov-17 04:50N 16°52' W 158°50'0 0.0 1012.9 26.8
2017-Nov-17 03:50N 16°52' W 158°50'1 1.1 1012.4 26.8
2017-Nov-17 02:50N 16°52' W 158°49'1 1.3 1012.0 26.8
2017-Nov-17 01:50N 16°52' W 158°48'0 0.0 1011.8 26.8
2017-Nov-17 00:50N 16°52' W 158°48'0 0.0 1011.8 26.8
2017-Nov-16 23:50N 16°52' W 158°48'5 2.3 1012.2 26.8
2017-Nov-16 21:50N 16°52' W 158°43'0 0.0 1013.9 26.8
2017-Nov-16 19:50N 16°52' W 158°43'2 1.8 1014.7 26.8
2017-Nov-16 18:50N 16°53' W 158°41'1 0.6 1014.7 26.8
2017-Nov-16 17:50N 16°53' W 158°41'1 0.6 1014.1 26.8
2017-Nov-16 16:50N 16°53' W 158°40'2 1.8 1013.5 26.8
2017-Nov-16 15:50N 16°52' W 158°38'1 0.6 1012.7 26.9
2017-Nov-16 14:50N 16°53' W 158°38'2 1.8 1012.4 26.9
2017-Nov-16 13:50N 16°52' W 158°37'3 3.5 1012.3 26.9
2017-Nov-16 12:50N 16°52' W 158°33'0 0.0 1012.6 26.9
2017-Nov-16 11:50N 16°52' W 158°33'2 0.6 1013.0 26.9
2017-Nov-16 08:50N 16°51' W 158°31'0 0.0 1014.3 27.0
2017-Nov-16 07:50N 16°51' W 158°31'1 0.6 1014.3 27.0
2017-Nov-16 06:50N 16°51' W 158°31'1 1.3 1014.2 27.0
2017-Nov-16 05:50N 16°52' W 158°29'1 0.6 1013.8 27.0
2017-Nov-16 04:50N 16°52' W 158°29'1 1.1 1013.3 27.0
2017-Nov-16 03:50N 16°52' W 158°28'2 1.8 1012.8 27.0
2017-Nov-16 02:50N 16°51' W 158°26'0 0.0 1012.3 27.1
2017-Nov-16 01:50N 16°51' W 158°26'2 2.1 1011.9 27.1
2017-Nov-16 00:50N 16°50' W 158°24'0 0.0 1011.8 27.1
2017-Nov-15 23:50N 16°50' W 158°24'5 1.0 1012.2 27.1
2017-Nov-15 18:50N 16°50' W 158°19'1 1.1 1015.1 27.0
2017-Nov-15 17:50N 16°50' W 158°17'1 0.6 1014.5 27.0
2017-Nov-15 16:50N 16°50' W 158°17'1 0.6 1013.9 27.0
2017-Nov-15 15:50N 16°50' W 158°16'0 0.0 1013.2 27.0
2017-Nov-15 14:50N 16°50' W 158°16'2 1.8 1012.5 27.0
2017-Nov-15 13:50N 16°50' W 158°14'0 0.0 1012.4 27.0
2017-Nov-15 12:50N 16°50' W 158°14'5 4.6 1012.8 27.0
2017-Nov-15 11:50N 16°49' W 158°10'0 0.0 1013.3 27.0
2017-Nov-15 07:50N 16°49' W 158°10'1 1.3 1015.0 27.0
2017-Nov-15 06:50N 16°50' W 158°08'1 0.6 1014.9 27.0
2017-Nov-15 05:50N 16°50' W 158°08'1 0.6 1014.3 27.0
2017-Nov-15 04:50N 16°50' W 158°08'1 1.3 1013.7 27.1
2017-Nov-15 03:50N 16°51' W 158°07'0 0.0 1013.1 27.1
2017-Nov-15 02:50N 16°51' W 158°07'1 0.8 1012.3 27.1
2017-Nov-15 01:50N 16°50' W 158°06'1 1.1 1011.9 27.1
2017-Nov-15 00:50N 16°50' W 158°05'0 0.0 1012.0 27.1
2017-Nov-14 23:50N 16°50' W 158°05'3 1.0 1012.2 27.1
2017-Nov-14 20:50N 16°50' W 158°02'1 0.6 1014.2 27.0
2017-Nov-14 19:50N 16°51' W 158°02'1 1.1 1014.5 27.0
2017-Nov-14 18:50N 16°51' W 158°01'0 0.0 1014.6 27.0
2017-Nov-14 17:50N 16°51' W 158°01'1 1.1 1014.1 27.0
2017-Nov-14 16:50N 16°51' W 157°59'1 0.8 1013.4 27.0
2017-Nov-14 15:50N 16°50' W 157°59'1 0.6 1012.7 27.0
2017-Nov-14 14:50N 16°50' W 157°58'1 0.8 1012.1 27.0
2017-Nov-14 13:50N 16°50' W 157°58'4 4.1 1012.4 27.0
2017-Nov-14 12:50N 16°49' W 157°53'0 0.0 1013.0 27.0
2017-Nov-14 07:50N 16°49' W 157°53'2 1.7 1014.3 27.0
2017-Nov-14 06:50N 16°49' W 157°52'1 0.6 1014.3 27.1
2017-Nov-14 05:50N 16°49' W 157°51'0 0.0 1013.8 27.1
2017-Nov-14 04:50N 16°49' W 157°51'1 1.1 1012.9 27.1
2017-Nov-14 03:50N 16°49' W 157°50'1 0.6 1012.2 27.1
2017-Nov-14 02:50N 16°49' W 157°49'1 1.3 1011.7 27.2
2017-Nov-14 01:50N 16°49' W 157°48'0 0.0 1011.1 27.2
2017-Nov-14 00:50N 16°49' W 157°48'5 5.2 1011.1 27.2
2017-Nov-13 23:50N 16°48' W 157°43'0 0.0 1011.5 27.2
2017-Nov-13 20:50N 16°48' W 157°43'0 0.0 1013.8 27.0
2017-Nov-13 19:50N 16°48' W 157°43'0 0.0 1014.1 27.1
2017-Nov-13 18:50N 16°48' W 157°43'0 0.0 1013.8 27.1
2017-Nov-13 17:50N 16°48' W 157°43'2 1.7 1013.3 27.1
2017-Nov-13 16:50N 16°48' W 157°41'1 0.6 1012.8 27.0
2017-Nov-13 15:50N 16°49' W 157°41'1 0.6 1012.2 27.0
2017-Nov-13 14:50N 16°49' W 157°40'1 0.8 1011.8 27.0
2017-Nov-13 13:50N 16°48' W 157°40'0 0.0 1011.9 27.0
2017-Nov-13 12:50N 16°48' W 157°40'3 0.9 1012.3 27.0
2017-Nov-13 08:50N 16°48' W 157°36'0 0.0 1013.9 27.0
2017-Nov-13 07:50N 16°48' W 157°36'0 0.0 1013.9 27.0
2017-Nov-13 06:50N 16°48' W 157°36'1 1.1 1013.9 27.0
2017-Nov-13 05:50N 16°48' W 157°35'1 0.8 1013.4 27.1
2017-Nov-13 04:50N 16°49' W 157°34'0 0.0 1012.6 27.1
2017-Nov-13 03:50N 16°49' W 157°34'1 0.6 1011.8 27.2
2017-Nov-13 02:50N 16°49' W 157°34'1 1.3 1011.2 27.2
2017-Nov-13 01:50N 16°48' W 157°32'4 4.2 1010.7 27.2
2017-Nov-13 00:50N 16°47' W 157°28'0 0.0 1010.6 27.2
2017-Nov-12 23:50N 16°47' W 157°28'1 0.1 1010.7 27.2
2017-Nov-12 19:50N 16°47' W 157°28'1 0.6 1013.1 26.9
2017-Nov-12 18:50N 16°47' W 157°27'1 1.3 1013.0 26.9
2017-Nov-12 17:50N 16°46' W 157°26'0 0.0 1012.7 26.9
2017-Nov-12 16:50N 16°46' W 157°26'1 0.6 1012.1 27.0
2017-Nov-12 15:50N 16°46' W 157°25'1 1.3 1011.4 26.9
2017-Nov-12 14:50N 16°46' W 157°24'0 0.0 1011.0 26.9
2017-Nov-12 13:50N 16°46' W 157°24'0 0.0 1010.9 26.9
2017-Nov-12 12:50N 16°46' W 157°24'4 2.1 1011.1 26.9
2017-Nov-12 10:50N 16°44' W 157°20'0 0.0 1012.1 26.9
2017-Nov-12 08:50N 16°44' W 157°20'1 0.6 1013.1 26.9
2017-Nov-12 07:50N 16°44' W 157°19'1 1.1 1012.8 26.9
2017-Nov-12 06:50N 16°44' W 157°18'1 0.6 1012.7 26.9
2017-Nov-12 05:50N 16°44' W 157°17'1 1.3 1012.3 26.9
2017-Nov-12 04:50N 16°46' W 157°17'1 0.6 1011.4 27.0
2017-Nov-12 03:50N 16°46' W 157°16'0 0.0 1011.1 27.0
2017-Nov-12 02:50N 16°46' W 157°16'2 1.7 1010.7 27.1
2017-Nov-12 01:50N 16°46' W 157°14'5 4.6 1009.9 27.1
2017-Nov-12 00:50N 16°45' W 157°10'5 4.6 1009.9 27.1
2017-Nov-11 23:50N 16°46' W 157°14'5 1.3 1010.1 27.1
2017-Nov-11 19:50N 16°45' W 157°09'1 0.6 1013.0 26.9
2017-Nov-11 18:50N 16°45' W 157°08'1 1.3 1012.9 26.8
2017-Nov-11 17:50N 16°44' W 157°07'1 0.8 1012.4 26.8
2017-Nov-11 16:50N 16°44' W 157°07'0 0.0 1012.0 26.8
2017-Nov-11 15:50N 16°44' W 157°07'2 1.7 1011.7 26.8
2017-Nov-11 14:50N 16°44' W 157°05'0 0.0 1011.3 26.8
2017-Nov-11 13:50N 16°44' W 157°05'5 2.6 1011.5 26.8
2017-Nov-11 11:50N 16°44' W 156°59'1 0.3 1012.3 26.8
2017-Nov-11 07:50N 16°44' W 156°58'0 0.0 1013.8 26.9
2017-Nov-11 06:50N 16°44' W 156°58'1 0.6 1013.4 26.9
2017-Nov-11 05:50N 16°44' W 156°58'1 0.6 1013.0 26.9
2017-Nov-11 04:50N 16°44' W 156°58'1 0.6 1012.4 26.9
2017-Nov-11 03:50N 16°44' W 156°57'3 2.9 1011.9 26.9
2017-Nov-11 02:50N 16°44' W 156°54'0 0.0 1010.9 26.9
2017-Nov-11 01:50N 16°44' W 156°54'3 3.5 1010.6 26.9
2017-Nov-11 00:50N 16°45' W 156°50'0 0.0 1010.5 26.9
2017-Nov-10 22:50N 16°45' W 156°50'1 0.2 1011.3 26.9
2017-Nov-10 19:50N 16°45' W 156°50'1 0.6 1013.5 26.8
2017-Nov-10 18:50N 16°45' W 156°49'1 1.3 1013.0 26.8
2017-Nov-10 17:50N 16°44' W 156°48'1 0.6 1012.8 26.8
2017-Nov-10 16:50N 16°44' W 156°47'1 1.1 1012.4 26.8
2017-Nov-10 15:50N 16°44' W 156°46'0 0.0 1012.3 26.8
2017-Nov-10 14:50N 16°44' W 156°46'1 0.6 1011.8 26.8
2017-Nov-10 13:50N 16°44' W 156°46'2 1.7 1011.6 26.8
2017-Nov-10 12:50N 16°44' W 156°44'0 0.0 1011.9 26.8
2017-Nov-10 11:50N 16°44' W 156°44'4 1.0 1012.4 26.8
2017-Nov-10 07:50N 16°45' W 156°40'2 1.7 1013.2 26.8
2017-Nov-10 06:50N 16°45' W 156°38'1 0.6 1013.0 26.8
2017-Nov-10 05:50N 16°45' W 156°37'1 0.6 1013.0 26.8
2017-Nov-10 04:50N 16°45' W 156°37'4 4.1 1012.1 26.8
2017-Nov-10 03:50N 16°46' W 156°32'0 0.0 1011.4 26.8
2017-Nov-10 02:50N 16°46' W 156°32'0 0.0 1010.9 26.9
2017-Nov-10 01:50N 16°46' W 156°32'1 0.6 1010.8 27.0
2017-Nov-10 00:50N 16°46' W 156°32'3 3.4 1010.9 27.0
2017-Nov-09 23:50N 16°46' W 156°28'0 0.0 1010.9 27.0
2017-Nov-09 22:50N 16°46' W 156°28'1 0.3 1011.6 27.0
2017-Nov-09 20:50N 16°46' W 156°28'1 0.6 1013.2 27.0
2017-Nov-09 19:50N 16°46' W 156°27'2 1.8 1013.9 27.1
2017-Nov-09 18:50N 16°45' W 156°25'0 0.0 1013.7 27.0
2017-Nov-09 17:50N 16°45' W 156°25'1 0.6 1013.2 27.0
2017-Nov-09 16:50N 16°45' W 156°25'2 1.7 1012.8 27.0
2017-Nov-09 15:50N 16°45' W 156°23'1 1.3 1012.3 27.0
2017-Nov-09 14:50N 16°44' W 156°22'0 0.0 1011.7 27.0
2017-Nov-09 13:50N 16°44' W 156°22'2 1.8 1011.7 27.0
2017-Nov-09 12:50N 16°45' W 156°20'5 4.6 1011.8 27.1
2017-Nov-09 11:50N 16°44' W 156°15'1 0.1 1012.3 27.1
2017-Nov-09 07:50N 16°44' W 156°14'1 0.6 1013.4 27.1
2017-Nov-09 06:50N 16°44' W 156°14'2 1.7 1013.4 27.1
2017-Nov-09 05:50N 16°44' W 156°12'1 0.6 1012.9 27.1
2017-Nov-09 04:50N 16°44' W 156°11'0 0.0 1012.3 27.1
2017-Nov-09 03:50N 16°44' W 156°11'3 2.9 1011.9 27.1
2017-Nov-09 02:50N 16°44' W 156°08'0 0.0 1011.6 27.1
2017-Nov-09 01:50N 16°44' W 156°08'2 1.8 1011.4 27.1
2017-Nov-09 00:50N 16°45' W 156°07'0 0.0 1011.1 27.2
2017-Nov-08 23:50N 16°45' W 156°07'2 2.3 1011.8 27.2
2017-Nov-08 22:50N 16°45' W 156°04'2 0.9 1012.7 27.1
2017-Nov-08 20:50N 16°45' W 156°02'1 0.6 1014.0 27.1
2017-Nov-08 19:50N 16°45' W 156°02'2 2.3 1014.4 27.1
2017-Nov-08 18:50N 16°45' W 155°59'0 0.0 1014.3 27.0
2017-Nov-08 17:50N 16°45' W 155°59'2 2.4 1014.0 27.0
2017-Nov-08 16:50N 16°46' W 155°57'1 0.8 1013.6 27.0
2017-Nov-08 15:50N 16°46' W 155°56'0 0.0 1013.2 27.0
2017-Nov-08 14:50N 16°46' W 155°56'1 1.1 1012.9 27.0
2017-Nov-08 13:50N 16°46' W 155°55'5 4.6 1013.1 27.0
2017-Nov-08 12:50N 16°46' W 155°50'   1013.5 27.0
Track history (hours):
 
Tides and Currents Weather Stations Pressure Air Temp Water Temp Dewpoint Dewpoint Depression Visibility Wind Speed Wind Dir Waves Ship Positions

Drifting buoy 21901

Last reported at 2017-Nov-18 12:50 UTC. Time now 2017-Nov-18 15:37 UTC.
Position N 16°48' W 159°13'.

Barometer 1010.3 mb
Water temperature 26.7 ° C

Date/timePositionNaut miles runAvg speedWind from/ knotsBaromVisibWave heightAir tempDewpointWater temp
2017-Nov-18 12:50N 16°48' W 159°13'0 0.0 1010.3 26.7
2017-Nov-18 11:50N 16°48' W 159°13'1 0.2 1010.8 26.7
2017-Nov-18 07:50N 16°49' W 159°13'1 0.8 1012.2 26.7
2017-Nov-18 06:50N 16°49' W 159°12'1 0.8 1012.1 26.7
2017-Nov-18 05:50N 16°50' W 159°11'1 0.6 1011.6 26.7
2017-Nov-18 04:50N 16°50' W 159°11'0 0.0 1010.7 26.7
2017-Nov-18 03:50N 16°50' W 159°11'2 2.3 1010.1 26.8
2017-Nov-18 02:50N 16°50' W 159°08'1 1.3 1009.7 26.8
2017-Nov-18 01:50N 16°49' W 159°07'0 0.0 1009.7 26.8
2017-Nov-18 00:50N 16°49' W 159°07'2 2.3 1009.9 26.8
2017-Nov-17 23:50N 16°49' W 159°05'0 0.0 1010.6 26.8
2017-Nov-17 20:50N 16°49' W 159°05'2 1.7 1012.9 26.7
2017-Nov-17 19:50N 16°49' W 159°03'1 0.6 1013.1 26.7
2017-Nov-17 18:50N 16°49' W 159°02'1 0.8 1012.9 26.7
2017-Nov-17 17:50N 16°50' W 159°02'0 0.0 1012.3 26.7
2017-Nov-17 16:50N 16°50' W 159°02'2 2.4 1011.9 26.7
2017-Nov-17 15:50N 16°50' W 158°59'0 0.0 1011.6 26.7
2017-Nov-17 14:50N 16°50' W 158°59'2 1.7 1011.3 26.7
2017-Nov-17 13:50N 16°50' W 158°58'3 2.9 1011.4 26.7
2017-Nov-17 12:50N 16°51' W 158°55'0 0.0 1012.0 26.7
2017-Nov-17 08:50N 16°51' W 158°55'1 0.8 1014.2 26.7
2017-Nov-17 07:50N 16°50' W 158°54'1 0.6 1014.3 26.8
2017-Nov-17 06:50N 16°50' W 158°53'1 1.3 1014.0 26.8
2017-Nov-17 05:50N 16°51' W 158°52'2 1.8 1013.6 26.8
2017-Nov-17 04:50N 16°52' W 158°50'0 0.0 1012.9 26.8
2017-Nov-17 03:50N 16°52' W 158°50'1 1.1 1012.4 26.8
2017-Nov-17 02:50N 16°52' W 158°49'1 1.3 1012.0 26.8
2017-Nov-17 01:50N 16°52' W 158°48'0 0.0 1011.8 26.8
2017-Nov-17 00:50N 16°52' W 158°48'0 0.0 1011.8 26.8
2017-Nov-16 23:50N 16°52' W 158°48'5 2.3 1012.2 26.8
2017-Nov-16 21:50N 16°52' W 158°43'0 0.0 1013.9 26.8
2017-Nov-16 19:50N 16°52' W 158°43'2 1.8 1014.7 26.8
2017-Nov-16 18:50N 16°53' W 158°41'1 0.6 1014.7 26.8
2017-Nov-16 17:50N 16°53' W 158°41'1 0.6 1014.1 26.8
2017-Nov-16 16:50N 16°53' W 158°40'2 1.8 1013.5 26.8
2017-Nov-16 15:50N 16°52' W 158°38'1 0.6 1012.7 26.9
2017-Nov-16 14:50N 16°53' W 158°38'2 1.8 1012.4 26.9
2017-Nov-16 13:50N 16°52' W 158°37'3 3.5 1012.3 26.9
2017-Nov-16 12:50N 16°52' W 158°33'0 0.0 1012.6 26.9
2017-Nov-16 11:50N 16°52' W 158°33'2 0.6 1013.0 26.9
2017-Nov-16 08:50N 16°51' W 158°31'0 0.0 1014.3 27.0
2017-Nov-16 07:50N 16°51' W 158°31'1 0.6 1014.3 27.0
2017-Nov-16 06:50N 16°51' W 158°31'1 1.3 1014.2 27.0
2017-Nov-16 05:50N 16°52' W 158°29'1 0.6 1013.8 27.0
2017-Nov-16 04:50N 16°52' W 158°29'1 1.1 1013.3 27.0
2017-Nov-16 03:50N 16°52' W 158°28'2 1.8 1012.8 27.0
2017-Nov-16 02:50N 16°51' W 158°26'0 0.0 1012.3 27.1
2017-Nov-16 01:50N 16°51' W 158°26'2 2.1 1011.9 27.1
2017-Nov-16 00:50N 16°50' W 158°24'0 0.0 1011.8 27.1
2017-Nov-15 23:50N 16°50' W 158°24'5 1.0 1012.2 27.1
2017-Nov-15 18:50N 16°50' W 158°19'1 1.1 1015.1 27.0
2017-Nov-15 17:50N 16°50' W 158°17'1 0.6 1014.5 27.0
2017-Nov-15 16:50N 16°50' W 158°17'1 0.6 1013.9 27.0
2017-Nov-15 15:50N 16°50' W 158°16'0 0.0 1013.2 27.0
2017-Nov-15 14:50N 16°50' W 158°16'2 1.8 1012.5 27.0
2017-Nov-15 13:50N 16°50' W 158°14'0 0.0 1012.4 27.0
2017-Nov-15 12:50N 16°50' W 158°14'5 4.6 1012.8 27.0
2017-Nov-15 11:50N 16°49' W 158°10'0 0.0 1013.3 27.0
2017-Nov-15 07:50N 16°49' W 158°10'1 1.3 1015.0 27.0
2017-Nov-15 06:50N 16°50' W 158°08'1 0.6 1014.9 27.0
2017-Nov-15 05:50N 16°50' W 158°08'1 0.6 1014.3 27.0
2017-Nov-15 04:50N 16°50' W 158°08'1 1.3 1013.7 27.1
2017-Nov-15 03:50N 16°51' W 158°07'0 0.0 1013.1 27.1
2017-Nov-15 02:50N 16°51' W 158°07'1 0.8 1012.3 27.1
2017-Nov-15 01:50N 16°50' W 158°06'1 1.1 1011.9 27.1
2017-Nov-15 00:50N 16°50' W 158°05'0 0.0 1012.0 27.1
2017-Nov-14 23:50N 16°50' W 158°05'3 1.0 1012.2 27.1
2017-Nov-14 20:50N 16°50' W 158°02'1 0.6 1014.2 27.0
2017-Nov-14 19:50N 16°51' W 158°02'1 1.1 1014.5 27.0
2017-Nov-14 18:50N 16°51' W 158°01'0 0.0 1014.6 27.0
2017-Nov-14 17:50N 16°51' W 158°01'1 1.1 1014.1 27.0
2017-Nov-14 16:50N 16°51' W 157°59'1 0.8 1013.4 27.0
2017-Nov-14 15:50N 16°50' W 157°59'1 0.6 1012.7 27.0
2017-Nov-14 14:50N 16°50' W 157°58'1 0.8 1012.1 27.0
2017-Nov-14 13:50N 16°50' W 157°58'4 4.1 1012.4 27.0
2017-Nov-14 12:50N 16°49' W 157°53'0 0.0 1013.0 27.0
2017-Nov-14 07:50N 16°49' W 157°53'2 1.7 1014.3 27.0
2017-Nov-14 06:50N 16°49' W 157°52'1 0.6 1014.3 27.1
2017-Nov-14 05:50N 16°49' W 157°51'0 0.0 1013.8 27.1
2017-Nov-14 04:50N 16°49' W 157°51'1 1.1 1012.9 27.1
2017-Nov-14 03:50N 16°49' W 157°50'1 0.6 1012.2 27.1
2017-Nov-14 02:50N 16°49' W 157°49'1 1.3 1011.7 27.2
2017-Nov-14 01:50N 16°49' W 157°48'0 0.0 1011.1 27.2
2017-Nov-14 00:50N 16°49' W 157°48'5 5.2 1011.1 27.2
2017-Nov-13 23:50N 16°48' W 157°43'0 0.0 1011.5 27.2
2017-Nov-13 20:50N 16°48' W 157°43'0 0.0 1013.8 27.0
2017-Nov-13 19:50N 16°48' W 157°43'0 0.0 1014.1 27.1
2017-Nov-13 18:50N 16°48' W 157°43'0 0.0 1013.8 27.1
2017-Nov-13 17:50N 16°48' W 157°43'2 1.7 1013.3 27.1
2017-Nov-13 16:50N 16°48' W 157°41'1 0.6 1012.8 27.0
2017-Nov-13 15:50N 16°49' W 157°41'1 0.6 1012.2 27.0
2017-Nov-13 14:50N 16°49' W 157°40'1 0.8 1011.8 27.0
2017-Nov-13 13:50N 16°48' W 157°40'0 0.0 1011.9 27.0
2017-Nov-13 12:50N 16°48' W 157°40'3 0.9 1012.3 27.0
2017-Nov-13 08:50N 16°48' W 157°36'0 0.0 1013.9 27.0
2017-Nov-13 07:50N 16°48' W 157°36'0 0.0 1013.9 27.0
2017-Nov-13 06:50N 16°48' W 157°36'1 1.1 1013.9 27.0
2017-Nov-13 05:50N 16°48' W 157°35'1 0.8 1013.4 27.1
2017-Nov-13 04:50N 16°49' W 157°34'0 0.0 1012.6 27.1
2017-Nov-13 03:50N 16°49' W 157°34'1 0.6 1011.8 27.2
2017-Nov-13 02:50N 16°49' W 157°34'1 1.3 1011.2 27.2
2017-Nov-13 01:50N 16°48' W 157°32'4 4.2 1010.7 27.2
2017-Nov-13 00:50N 16°47' W 157°28'0 0.0 1010.6 27.2
2017-Nov-12 23:50N 16°47' W 157°28'1 0.1 1010.7 27.2
2017-Nov-12 19:50N 16°47' W 157°28'1 0.6 1013.1 26.9
2017-Nov-12 18:50N 16°47' W 157°27'1 1.3 1013.0 26.9
2017-Nov-12 17:50N 16°46' W 157°26'0 0.0 1012.7 26.9
2017-Nov-12 16:50N 16°46' W 157°26'1 0.6 1012.1 27.0
2017-Nov-12 15:50N 16°46' W 157°25'1 1.3 1011.4 26.9
2017-Nov-12 14:50N 16°46' W 157°24'0 0.0 1011.0 26.9
2017-Nov-12 13:50N 16°46' W 157°24'0 0.0 1010.9 26.9
2017-Nov-12 12:50N 16°46' W 157°24'4 2.1 1011.1 26.9
2017-Nov-12 10:50N 16°44' W 157°20'0 0.0 1012.1 26.9
2017-Nov-12 08:50N 16°44' W 157°20'1 0.6 1013.1 26.9
2017-Nov-12 07:50N 16°44' W 157°19'1 1.1 1012.8 26.9
2017-Nov-12 06:50N 16°44' W 157°18'1 0.6 1012.7 26.9
2017-Nov-12 05:50N 16°44' W 157°17'1 1.3 1012.3 26.9
2017-Nov-12 04:50N 16°46' W 157°17'1 0.6 1011.4 27.0
2017-Nov-12 03:50N 16°46' W 157°16'0 0.0 1011.1 27.0
2017-Nov-12 02:50N 16°46' W 157°16'2 1.7 1010.7 27.1
2017-Nov-12 01:50N 16°46' W 157°14'5 4.6 1009.9 27.1
2017-Nov-12 00:50N 16°45' W 157°10'5 4.6 1009.9 27.1
2017-Nov-11 23:50N 16°46' W 157°14'5 1.3 1010.1 27.1
2017-Nov-11 19:50N 16°45' W 157°09'1 0.6 1013.0 26.9
2017-Nov-11 18:50N 16°45' W 157°08'1 1.3 1012.9 26.8
2017-Nov-11 17:50N 16°44' W 157°07'1 0.8 1012.4 26.8
2017-Nov-11 16:50N 16°44' W 157°07'0 0.0 1012.0 26.8
2017-Nov-11 15:50N 16°44' W 157°07'2 1.7 1011.7 26.8
2017-Nov-11 14:50N 16°44' W 157°05'0 0.0 1011.3 26.8
2017-Nov-11 13:50N 16°44' W 157°05'5 2.6 1011.5 26.8
2017-Nov-11 11:50N 16°44' W 156°59'1 0.3 1012.3 26.8
2017-Nov-11 07:50N 16°44' W 156°58'0 0.0 1013.8 26.9
2017-Nov-11 06:50N 16°44' W 156°58'1 0.6 1013.4 26.9
2017-Nov-11 05:50N 16°44' W 156°58'1 0.6 1013.0 26.9
2017-Nov-11 04:50N 16°44' W 156°58'1 0.6 1012.4 26.9
2017-Nov-11 03:50N 16°44' W 156°57'3 2.9 1011.9 26.9
2017-Nov-11 02:50N 16°44' W 156°54'0 0.0 1010.9 26.9
2017-Nov-11 01:50N 16°44' W 156°54'3 3.5 1010.6 26.9
2017-Nov-11 00:50N 16°45' W 156°50'0 0.0 1010.5 26.9
2017-Nov-10 22:50N 16°45' W 156°50'1 0.2 1011.3 26.9
2017-Nov-10 19:50N 16°45' W 156°50'1 0.6 1013.5 26.8
2017-Nov-10 18:50N 16°45' W 156°49'1 1.3 1013.0 26.8
2017-Nov-10 17:50N 16°44' W 156°48'1 0.6 1012.8 26.8
2017-Nov-10 16:50N 16°44' W 156°47'1 1.1 1012.4 26.8
2017-Nov-10 15:50N 16°44' W 156°46'0 0.0 1012.3 26.8
2017-Nov-10 14:50N 16°44' W 156°46'1 0.6 1011.8 26.8
2017-Nov-10 13:50N 16°44' W 156°46'2 1.7 1011.6 26.8
2017-Nov-10 12:50N 16°44' W 156°44'0 0.0 1011.9 26.8
2017-Nov-10 11:50N 16°44' W 156°44'4 1.0 1012.4 26.8
2017-Nov-10 07:50N 16°45' W 156°40'2 1.7 1013.2 26.8
2017-Nov-10 06:50N 16°45' W 156°38'1 0.6 1013.0 26.8
2017-Nov-10 05:50N 16°45' W 156°37'1 0.6 1013.0 26.8
2017-Nov-10 04:50N 16°45' W 156°37'4 4.1 1012.1 26.8
2017-Nov-10 03:50N 16°46' W 156°32'0 0.0 1011.4 26.8
2017-Nov-10 02:50N 16°46' W 156°32'0 0.0 1010.9 26.9
2017-Nov-10 01:50N 16°46' W 156°32'1 0.6 1010.8 27.0
2017-Nov-10 00:50N 16°46' W 156°32'3 3.4 1010.9 27.0
2017-Nov-09 23:50N 16°46' W 156°28'0 0.0 1010.9 27.0
2017-Nov-09 22:50N 16°46' W 156°28'1 0.3 1011.6 27.0
2017-Nov-09 20:50N 16°46' W 156°28'1 0.6 1013.2 27.0
2017-Nov-09 19:50N 16°46' W 156°27'2 1.8 1013.9 27.1
2017-Nov-09 18:50N 16°45' W 156°25'0 0.0 1013.7 27.0
2017-Nov-09 17:50N 16°45' W 156°25'1 0.6 1013.2 27.0
2017-Nov-09 16:50N 16°45' W 156°25'2 1.7 1012.8 27.0
2017-Nov-09 15:50N 16°45' W 156°23'1 1.3 1012.3 27.0
2017-Nov-09 14:50N 16°44' W 156°22'0 0.0 1011.7 27.0
2017-Nov-09 13:50N 16°44' W 156°22'2 1.8 1011.7 27.0
2017-Nov-09 12:50N 16°45' W 156°20'5 4.6 1011.8 27.1
2017-Nov-09 11:50N 16°44' W 156°15'1 0.1 1012.3 27.1
2017-Nov-09 07:50N 16°44' W 156°14'1 0.6 1013.4 27.1
2017-Nov-09 06:50N 16°44' W 156°14'2 1.7 1013.4 27.1
2017-Nov-09 05:50N 16°44' W 156°12'1 0.6 1012.9 27.1
2017-Nov-09 04:50N 16°44' W 156°11'0 0.0 1012.3 27.1
2017-Nov-09 03:50N 16°44' W 156°11'3 2.9 1011.9 27.1
2017-Nov-09 02:50N 16°44' W 156°08'0 0.0 1011.6 27.1
2017-Nov-09 01:50N 16°44' W 156°08'2 1.8 1011.4 27.1
2017-Nov-09 00:50N 16°45' W 156°07'0 0.0 1011.1 27.2
2017-Nov-08 23:50N 16°45' W 156°07'2 2.3 1011.8 27.2
2017-Nov-08 22:50N 16°45' W 156°04'2 0.9 1012.7 27.1
2017-Nov-08 20:50N 16°45' W 156°02'1 0.6 1014.0 27.1
2017-Nov-08 19:50N 16°45' W 156°02'2 2.3 1014.4 27.1
2017-Nov-08 18:50N 16°45' W 155°59'0 0.0 1014.3 27.0
2017-Nov-08 17:50N 16°45' W 155°59'2 2.4 1014.0 27.0
2017-Nov-08 16:50N 16°46' W 155°57'1 0.8 1013.6 27.0
2017-Nov-08 15:50N 16°46' W 155°56'0 0.0 1013.2 27.0
2017-Nov-08 14:50N 16°46' W 155°56'1 1.1 1012.9 27.0
2017-Nov-08 13:50N 16°46' W 155°55'5 4.6 1013.1 27.0
2017-Nov-08 12:50N 16°46' W 155°50'   1013.5 27.0

Dump ship's entire track history